createdAt,value
2022-10-05T00:00:51.309Z,14.51
2022-10-05T00:10:53.239Z,11.58
2022-10-05T00:20:55.157Z,12.52
2022-10-05T00:31:00.225Z,15.15
2022-10-05T00:41:20.920Z,14.35
2022-10-05T00:51:26.047Z,11.65
2022-10-05T01:01:46.608Z,12.72
2022-10-05T01:11:51.111Z,15.16
2022-10-05T01:21:57.302Z,14.17
2022-10-05T01:32:10.328Z,11.48
2022-10-05T01:42:12.082Z,12.69
2022-10-05T01:52:23.266Z,15.26
2022-10-05T02:02:26.119Z,14.46
2022-10-05T02:12:32.225Z,11.87
2022-10-05T02:22:42.230Z,12.92
2022-10-05T02:32:52.900Z,15.34
2022-10-05T02:43:01.021Z,14.42
2022-10-05T02:53:09.747Z,11.57
2022-10-05T03:03:18.275Z,12.39
2022-10-05T03:13:39.094Z,14.78
2022-10-05T03:24:00.651Z,15.74
2022-10-05T03:34:35.143Z,14.48
2022-10-05T03:44:37.631Z,11.57
2022-10-05T03:54:42.382Z,12.65
2022-10-05T04:04:50.987Z,15.18
2022-10-05T04:15:18.859Z,16.14
2022-10-05T04:25:39.983Z,14.66
2022-10-05T04:35:44.887Z,11.88
2022-10-05T04:46:06.948Z,12.82
2022-10-05T04:56:11.988Z,15.33
2022-10-05T05:06:23.558Z,14.58
2022-10-05T05:16:40.268Z,12.03
2022-10-05T05:27:08.447Z,13.28
2022-10-05T05:37:35.177Z,16.10
2022-10-05T05:47:41.282Z,15.81
2022-10-05T05:57:45.038Z,13.73
2022-10-05T06:07:46.700Z,15.28
2022-10-05T06:17:54.814Z,17.90
2022-10-05T06:27:58.098Z,17.39
2022-10-05T06:38:00.431Z,15.39
2022-10-05T06:48:05.333Z,14.58
2022-10-05T06:58:33.958Z,14.15
2022-10-05T07:08:49.755Z,16.60
2022-10-05T07:18:54.711Z,18.00
2022-10-05T07:28:56.701Z,16.34
2022-10-05T07:38:58.942Z,15.58
2022-10-05T07:49:03.460Z,15.44
2022-10-05T07:59:11.118Z,15.94
2022-10-05T08:09:22.542Z,17.27
2022-10-05T08:19:29.730Z,19.15
2022-10-05T08:29:57.945Z,21.04
2022-10-05T08:40:03.163Z,19.80
2022-10-05T08:50:10.823Z,19.75
2022-10-05T09:00:14.348Z,20.00
2022-10-05T09:10:31.376Z,19.92
2022-10-05T09:20:33.112Z,19.55
2022-10-05T09:30:40.835Z,19.36
2022-10-05T09:40:44.719Z,19.53
2022-10-05T09:50:54.183Z,19.73
2022-10-05T10:01:09.463Z,19.89
2022-10-05T10:11:38.584Z,19.82
2022-10-05T10:21:58.894Z,19.67
2022-10-05T10:32:01.774Z,19.44
2022-10-05T10:42:15.928Z,19.48
2022-10-05T10:52:36.685Z,19.28
2022-10-05T11:02:42.655Z,18.96
2022-10-05T11:13:05.664Z,19.53
2022-10-05T11:23:26.096Z,19.41
2022-10-05T11:33:33.651Z,19.23
2022-10-05T11:43:35.490Z,19.79
2022-10-05T11:53:37.691Z,20.48
2022-10-05T12:03:52.005Z,20.76
2022-10-05T12:14:01.470Z,20.65
2022-10-05T12:24:29.361Z,20.16
2022-10-05T12:34:48.823Z,20.06
2022-10-05T12:44:53.274Z,20.12
2022-10-05T12:55:21.829Z,20.03
2022-10-05T13:05:31.221Z,20.11
2022-10-05T13:15:39.162Z,20.14
2022-10-05T13:26:01.252Z,20.09
2022-10-05T13:36:03.094Z,20.04
2022-10-05T13:46:11.085Z,19.98
2022-10-05T13:56:28.999Z,19.67
2022-10-05T14:06:32.583Z,19.32
2022-10-05T14:16:35.698Z,18.93
2022-10-05T14:26:37.959Z,18.58
2022-10-05T14:36:40.502Z,18.17
2022-10-05T14:46:53.184Z,17.76
2022-10-05T14:57:02.600Z,20.00
2022-10-05T15:07:20.808Z,22.87
2022-10-05T15:17:31.132Z,21.97
2022-10-05T15:27:40.036Z,19.30
2022-10-05T15:37:42.553Z,17.75
2022-10-05T15:48:00.084Z,19.00
2022-10-05T15:58:21.394Z,21.32
2022-10-05T16:08:51.128Z,20.27
2022-10-05T16:18:55.645Z,17.58
2022-10-05T16:29:14.527Z,18.59
2022-10-05T16:39:16.329Z,20.79
2022-10-05T16:49:24.042Z,19.76
2022-10-05T16:59:44.876Z,17.21
2022-10-05T17:10:05.849Z,18.28
2022-10-05T17:20:19.909Z,20.59
2022-10-05T17:30:28.672Z,19.61
2022-10-05T17:40:34.269Z,16.98
2022-10-05T17:50:58.015Z,17.88
2022-10-05T18:01:00.984Z,20.09
2022-10-05T18:11:06.425Z,18.19
2022-10-05T18:21:14.645Z,15.88
2022-10-05T18:31:22.524Z,17.07
2022-10-05T18:41:32.691Z,19.35
2022-10-05T18:51:41.601Z,18.29
2022-10-05T19:01:59.670Z,15.77
2022-10-05T19:12:12.203Z,16.98
2022-10-05T19:22:16.939Z,19.19
2022-10-05T19:32:27.094Z,18.19
2022-10-05T19:42:47.997Z,15.59
2022-10-05T19:52:51.554Z,16.66
2022-10-05T20:03:14.883Z,18.88
2022-10-05T20:13:21.411Z,17.89
2022-10-05T20:23:25.231Z,15.23
2022-10-05T20:33:28.113Z,16.23
2022-10-05T20:43:30.281Z,18.55
2022-10-05T20:53:32.054Z,19.34
2022-10-05T21:03:33.837Z,17.87
2022-10-05T21:13:38.751Z,14.87
2022-10-05T21:23:40.553Z,15.51
2022-10-05T21:33:42.593Z,17.71
2022-10-05T21:43:45.388Z,18.54
2022-10-05T21:53:52.730Z,16.95
2022-10-05T22:03:54.516Z,14.05
2022-10-05T22:14:02.595Z,14.72
2022-10-05T22:24:04.493Z,16.97
2022-10-05T22:34:06.259Z,17.98
2022-10-05T22:44:08.354Z,16.56
2022-10-05T22:54:10.106Z,13.55
2022-10-05T23:04:12.046Z,14.19
2022-10-05T23:14:14.179Z,16.35
2022-10-05T23:24:15.863Z,17.09
2022-10-05T23:34:17.666Z,15.78
2022-10-05T23:44:20.235Z,12.81
2022-10-05T23:54:21.948Z,13.68
